createdAt,value
2023-04-16T00:01:36.592Z,7.00
2023-04-16T00:04:12.173Z,9.58
2023-04-16T00:06:45.336Z,8.00
2023-04-16T00:09:18.862Z,8.75
2023-04-16T00:11:52.684Z,9.15
2023-04-16T00:14:26.258Z,6.53
2023-04-16T00:16:59.943Z,11.55
2023-04-16T00:19:33.621Z,13.13
2023-04-16T00:22:06.786Z,14.95
2023-04-16T00:24:40.270Z,12.93
2023-04-16T00:27:13.870Z,10.63
2023-04-16T00:29:47.747Z,12.95
2023-04-16T00:32:21.421Z,9.10
2023-04-16T00:34:55.144Z,7.60
2023-04-16T00:37:28.981Z,13.60
2023-04-16T00:40:02.350Z,10.43
2023-04-16T00:42:37.214Z,8.60
2023-04-16T00:45:13.322Z,9.08
2023-04-16T00:47:47.163Z,9.18
2023-04-16T00:50:20.598Z,5.05
2023-04-16T00:52:54.348Z,6.05
2023-04-16T00:55:27.775Z,7.30
2023-04-16T00:58:01.339Z,10.40
2023-04-16T01:00:34.937Z,8.83
2023-04-16T01:03:08.566Z,6.53
2023-04-16T01:05:42.397Z,5.55
2023-04-16T01:08:20.593Z,8.30
2023-04-16T01:10:54.019Z,5.12
2023-04-16T01:13:27.706Z,7.90
2023-04-16T01:16:01.401Z,9.70
2023-04-16T01:18:35.718Z,10.70
2023-04-16T01:21:09.511Z,9.35
2023-04-16T01:23:42.945Z,10.03
2023-04-16T01:26:16.445Z,10.63
2023-04-16T01:28:49.636Z,7.17
2023-04-16T01:31:23.226Z,6.12
2023-04-16T01:34:04.284Z,11.10
2023-04-16T01:36:41.116Z,9.38
2023-04-16T01:39:16.607Z,7.95
2023-04-16T01:41:50.411Z,9.65
2023-04-16T01:44:24.041Z,10.15
2023-04-16T01:46:57.832Z,9.05
2023-04-16T01:49:32.386Z,10.48
2023-04-16T01:52:07.994Z,8.60
2023-04-16T01:54:41.619Z,12.47
2023-04-16T01:57:15.544Z,11.50
2023-04-16T01:59:49.170Z,12.10
2023-04-16T02:02:24.734Z,9.33
2023-04-16T02:04:58.972Z,7.42
2023-04-16T02:07:32.632Z,9.78
2023-04-16T02:10:07.735Z,7.37
2023-04-16T02:12:42.560Z,9.98
2023-04-16T02:15:16.764Z,11.55
2023-04-16T02:17:53.748Z,10.82
2023-04-16T02:20:29.166Z,11.97
2023-04-16T02:23:04.120Z,10.82
2023-04-16T02:25:42.120Z,14.58
2023-04-16T02:28:18.001Z,10.60
2023-04-16T02:30:52.328Z,9.93
2023-04-16T02:33:26.956Z,8.70
2023-04-16T02:36:02.437Z,11.25
2023-04-16T02:38:37.678Z,10.88
2023-04-16T02:41:11.666Z,8.05
2023-04-16T02:43:45.125Z,7.33
2023-04-16T02:46:18.672Z,10.45
2023-04-16T02:48:52.275Z,9.63
2023-04-16T02:51:26.263Z,9.38
2023-04-16T02:53:59.886Z,14.80
2023-04-16T02:56:33.139Z,8.05
2023-04-16T02:59:07.025Z,9.13
2023-04-16T03:01:40.570Z,9.00
2023-04-16T03:04:14.412Z,11.90
2023-04-16T03:06:47.622Z,8.23
2023-04-16T03:09:21.205Z,10.98
2023-04-16T03:11:54.670Z,7.35
2023-04-16T03:14:28.495Z,6.70
2023-04-16T03:17:02.249Z,11.15
2023-04-16T03:19:36.033Z,15.45
2023-04-16T03:22:09.735Z,10.10
2023-04-16T03:24:43.330Z,9.80
2023-04-16T03:27:16.958Z,11.20
2023-04-16T03:29:51.028Z,8.20
2023-04-16T03:32:24.485Z,8.78
2023-04-16T03:34:57.940Z,10.53
2023-04-16T03:37:32.123Z,13.30
2023-04-16T03:40:07.198Z,8.00
2023-04-16T03:42:41.233Z,10.13
2023-04-16T03:45:15.378Z,9.73
2023-04-16T03:47:53.642Z,12.85
2023-04-16T03:50:28.858Z,7.70
2023-04-16T03:53:02.551Z,12.95
2023-04-16T03:55:36.762Z,9.20
2023-04-16T03:58:10.748Z,11.53
2023-04-16T04:00:45.533Z,7.42
2023-04-16T04:03:20.896Z,12.70
2023-04-16T04:05:55.612Z,10.70
2023-04-16T04:08:31.001Z,12.98
2023-04-16T04:11:04.361Z,10.90
2023-04-16T04:13:38.299Z,19.27
2023-04-16T04:16:11.756Z,9.08
2023-04-16T04:18:48.579Z,9.55
2023-04-16T04:21:23.776Z,13.43
2023-04-16T04:23:57.006Z,10.55
2023-04-16T04:26:30.793Z,11.00
2023-04-16T04:29:04.324Z,9.43
2023-04-16T04:31:37.850Z,12.75
2023-04-16T04:34:11.595Z,6.65
2023-04-16T04:36:44.984Z,17.75
2023-04-16T04:39:20.577Z,12.15
2023-04-16T04:41:54.375Z,11.05
2023-04-16T04:44:29.626Z,9.93
2023-04-16T04:47:03.562Z,8.93
2023-04-16T04:49:36.922Z,9.78
2023-04-16T04:52:11.676Z,7.53
2023-04-16T04:54:45.289Z,16.20
2023-04-16T04:57:19.065Z,10.80
2023-04-16T04:59:52.799Z,11.30
2023-04-16T05:02:26.567Z,14.00
2023-04-16T05:05:00.138Z,9.98
2023-04-16T05:07:35.001Z,12.07
2023-04-16T05:10:10.938Z,9.08
2023-04-16T05:12:44.802Z,13.20
2023-04-16T05:15:19.013Z,15.65
2023-04-16T05:17:52.552Z,10.55
2023-04-16T05:20:25.759Z,8.80
2023-04-16T05:22:59.500Z,11.50
2023-04-16T05:25:33.075Z,10.90
2023-04-16T05:28:07.120Z,11.78
2023-04-16T05:30:40.501Z,10.70
2023-04-16T05:33:14.253Z,13.22
2023-04-16T05:35:47.958Z,12.53
2023-04-16T05:38:21.505Z,9.70
2023-04-16T05:40:55.414Z,8.45
2023-04-16T05:43:29.071Z,12.20
2023-04-16T05:46:02.738Z,15.08
2023-04-16T05:48:36.483Z,18.80
2023-04-16T05:51:10.362Z,8.65
2023-04-16T05:53:44.164Z,8.23
2023-04-16T05:56:17.798Z,11.33
2023-04-16T05:58:51.305Z,11.35
2023-04-16T06:01:25.765Z,12.90
2023-04-16T06:03:59.473Z,11.73
2023-04-16T06:06:33.159Z,13.83
2023-04-16T06:09:06.690Z,11.83
2023-04-16T06:11:40.169Z,12.75
2023-04-16T06:14:13.945Z,9.65
2023-04-16T06:16:47.387Z,12.03
2023-04-16T06:19:21.587Z,9.85
2023-04-16T06:21:56.409Z,6.70
2023-04-16T06:24:29.978Z,15.70
2023-04-16T06:27:04.039Z,8.53
2023-04-16T06:29:41.616Z,7.25
2023-04-16T06:32:14.268Z,6.95
2023-04-16T06:34:49.300Z,8.40
2023-04-16T06:37:22.747Z,12.45
2023-04-16T06:39:56.400Z,8.90
2023-04-16T06:42:29.890Z,11.10
2023-04-16T06:45:03.207Z,9.23
2023-04-16T06:47:37.085Z,13.03
2023-04-16T06:50:12.609Z,8.75
2023-04-16T06:52:46.352Z,11.68
2023-04-16T06:55:20.584Z,11.97
2023-04-16T06:57:53.946Z,7.67
2023-04-16T07:00:27.347Z,13.15
2023-04-16T07:03:02.591Z,11.10
2023-04-16T07:05:36.225Z,6.58
2023-04-16T07:10:54.003Z,11.57
2023-04-16T07:13:27.869Z,6.05
2023-04-16T07:16:02.714Z,4.45
2023-04-16T07:18:36.618Z,5.03
2023-04-16T07:21:10.264Z,9.85
2023-04-16T07:23:44.803Z,12.00
2023-04-16T07:26:18.426Z,12.10
2023-04-16T07:28:52.255Z,8.95
2023-04-16T07:31:25.585Z,9.03
2023-04-16T07:33:59.168Z,10.43
2023-04-16T07:36:32.562Z,15.68
2023-04-16T07:39:06.570Z,10.15
2023-04-16T07:41:41.277Z,11.10
2023-04-16T07:44:16.516Z,6.03
2023-04-16T07:46:50.384Z,9.58
2023-04-16T07:49:23.962Z,10.40
2023-04-16T07:51:59.358Z,8.93
2023-04-16T07:54:36.002Z,12.03
2023-04-16T07:57:09.669Z,7.35
2023-04-16T07:59:43.079Z,7.65
2023-04-16T08:02:17.806Z,5.55
2023-04-16T08:04:51.304Z,7.67
2023-04-16T08:07:25.041Z,11.57
2023-04-16T08:09:58.727Z,8.78
2023-04-16T08:12:32.493Z,9.73
2023-04-16T08:15:07.529Z,9.78
2023-04-16T08:17:43.528Z,9.60
2023-04-16T08:20:19.119Z,6.12
2023-04-16T08:22:52.039Z,11.95
2023-04-16T08:25:26.015Z,11.75
2023-04-16T08:27:59.624Z,5.70
2023-04-16T08:30:33.432Z,7.53
2023-04-16T08:33:14.003Z,7.47
2023-04-16T08:35:53.653Z,9.58
2023-04-16T08:38:31.174Z,5.70
2023-04-16T08:41:09.145Z,10.65
2023-04-16T08:43:45.942Z,6.15
2023-04-16T08:46:21.382Z,8.80
2023-04-16T08:48:57.108Z,9.08
2023-04-16T08:51:33.343Z,7.35
2023-04-16T08:54:09.098Z,10.70
2023-04-16T08:56:43.996Z,8.68
2023-04-16T08:59:18.142Z,8.65
2023-04-16T09:02:00.801Z,6.60
2023-04-16T09:04:36.130Z,8.73
2023-04-16T09:07:11.428Z,9.73
2023-04-16T09:09:47.270Z,8.73
2023-04-16T09:12:20.865Z,10.30
2023-04-16T09:14:59.884Z,6.78
2023-04-16T09:17:36.412Z,7.85
2023-04-16T09:20:12.738Z,7.08
2023-04-16T09:22:46.635Z,6.60
2023-04-16T09:25:21.954Z,6.70
2023-04-16T09:27:55.764Z,8.00
2023-04-16T09:30:30.871Z,7.25
2023-04-16T09:33:20.482Z,6.60
2023-04-16T09:35:57.640Z,8.30
2023-04-16T09:38:48.521Z,5.70
2023-04-16T09:41:23.721Z,6.17
2023-04-16T09:44:04.854Z,8.45
2023-04-16T09:46:43.354Z,11.00
2023-04-16T09:49:44.396Z,9.03
2023-04-16T09:52:54.474Z,6.35
2023-04-16T09:55:34.038Z,7.35
2023-04-16T09:58:07.763Z,6.65
2023-04-16T10:00:43.687Z,7.85
2023-04-16T10:03:18.139Z,5.80
2023-04-16T10:05:54.213Z,12.30
2023-04-16T10:08:30.673Z,9.08
2023-04-16T10:11:05.099Z,6.08
2023-04-16T10:13:38.542Z,12.55
2023-04-16T10:16:12.740Z,8.28
2023-04-16T10:18:47.729Z,6.47
2023-04-16T10:21:27.171Z,7.85
2023-04-16T10:26:44.561Z,7.22
2023-04-16T10:32:01.332Z,11.25
2023-04-16T10:37:18.810Z,8.00
2023-04-16T10:39:54.011Z,14.65
2023-04-16T10:42:28.513Z,7.30
2023-04-16T10:45:04.394Z,11.90
2023-04-16T10:50:24.415Z,6.95
2023-04-16T10:53:23.871Z,8.83
2023-04-16T10:56:13.868Z,5.22
2023-04-16T10:58:47.341Z,13.03
2023-04-16T11:01:22.164Z,6.72
2023-04-16T11:03:55.701Z,6.35
2023-04-16T11:06:30.033Z,6.87
2023-04-16T11:09:05.918Z,5.33
2023-04-16T11:11:41.332Z,5.35
2023-04-16T11:14:15.578Z,10.93
2023-04-16T11:16:49.149Z,6.00
2023-04-16T11:19:22.636Z,5.85
2023-04-16T11:21:56.329Z,6.15
2023-04-16T11:27:17.064Z,9.45
2023-04-16T11:29:59.039Z,9.15
2023-04-16T11:32:35.815Z,6.30
2023-04-16T11:35:16.804Z,8.08
2023-04-16T11:37:50.016Z,9.28
2023-04-16T11:40:23.709Z,11.50
2023-04-16T11:42:58.053Z,6.85
2023-04-16T11:45:32.427Z,6.17
2023-04-16T11:48:09.910Z,12.33
2023-04-16T11:53:24.285Z,8.55
2023-04-16T11:55:57.891Z,7.50
2023-04-16T11:58:31.427Z,10.63
2023-04-16T12:01:05.858Z,10.05
2023-04-16T12:03:46.028Z,9.18
2023-04-16T12:06:19.870Z,11.15
2023-04-16T12:08:53.883Z,8.18
2023-04-16T12:11:41.860Z,8.33
2023-04-16T12:14:18.044Z,9.33
2023-04-16T12:16:55.646Z,8.83
2023-04-16T12:19:29.269Z,6.62
2023-04-16T12:22:03.876Z,11.33
2023-04-16T12:24:38.389Z,12.13
2023-04-16T12:27:12.028Z,8.90
2023-04-16T12:29:45.832Z,7.17
2023-04-16T12:32:25.296Z,5.78
2023-04-16T12:34:58.882Z,13.43
2023-04-16T12:37:33.177Z,9.35
2023-04-16T12:40:08.881Z,6.92
2023-04-16T12:42:44.539Z,7.35
2023-04-16T12:45:18.162Z,10.53
2023-04-16T12:53:32.662Z,7.60
2023-04-16T12:56:14.644Z,8.53
2023-04-16T12:58:50.234Z,10.95
2023-04-16T13:01:24.611Z,11.45
2023-04-16T13:04:04.318Z,9.78
2023-04-16T13:06:41.954Z,7.75
2023-04-16T13:09:21.008Z,10.48
2023-04-16T13:11:55.475Z,10.72
2023-04-16T13:14:28.775Z,6.37
2023-04-16T13:17:02.286Z,8.83
2023-04-16T13:19:39.676Z,12.75
2023-04-16T13:22:13.102Z,9.00
2023-04-16T13:24:46.640Z,12.78
2023-04-16T13:27:20.555Z,7.78
2023-04-16T13:29:53.922Z,6.83
2023-04-16T13:32:27.559Z,4.65
2023-04-16T13:35:01.122Z,6.65
2023-04-16T13:37:36.127Z,13.93
2023-04-16T13:40:11.748Z,7.25
2023-04-16T13:42:46.787Z,7.10
2023-04-16T13:45:21.223Z,8.55
2023-04-16T13:47:56.407Z,5.40
2023-04-16T13:50:30.259Z,8.35
2023-04-16T13:53:03.658Z,7.55
2023-04-16T13:55:37.453Z,5.97
2023-04-16T13:58:14.745Z,7.30
2023-04-16T14:00:48.572Z,5.78
2023-04-16T14:03:22.420Z,8.00
2023-04-16T14:05:56.134Z,11.73
2023-04-16T14:08:30.627Z,5.87
2023-04-16T14:11:06.039Z,6.65
2023-04-16T14:13:42.964Z,9.65
2023-04-16T14:16:19.283Z,9.10
2023-04-16T14:18:54.418Z,8.55
2023-04-16T14:21:28.942Z,6.90
2023-04-16T14:24:02.849Z,7.70
2023-04-16T14:26:36.732Z,16.48
2023-04-16T14:29:11.650Z,5.87
2023-04-16T14:31:46.919Z,9.65
2023-04-16T14:34:21.393Z,9.60
2023-04-16T14:36:55.086Z,11.30
2023-04-16T14:39:29.215Z,9.10
2023-04-16T14:42:04.561Z,10.90
2023-04-16T14:44:38.935Z,8.70
2023-04-16T14:47:15.874Z,4.83
2023-04-16T14:49:49.977Z,4.08
2023-04-16T14:52:24.099Z,5.60
2023-04-16T14:55:00.414Z,8.68
2023-04-16T14:57:34.920Z,9.00
2023-04-16T15:00:12.128Z,7.80
2023-04-16T15:02:50.393Z,5.12
2023-04-16T15:08:12.691Z,9.78
2023-04-16T15:10:46.387Z,18.70
2023-04-16T15:13:20.246Z,5.70
2023-04-16T15:15:54.580Z,7.80
2023-04-16T15:18:29.355Z,9.45
2023-04-16T15:21:03.122Z,9.53
2023-04-16T15:23:36.901Z,6.70
2023-04-16T15:26:10.739Z,9.18
2023-04-16T15:28:44.125Z,5.53
2023-04-16T15:34:02.720Z,7.00
2023-04-16T15:36:36.723Z,13.58
2023-04-16T15:39:10.505Z,10.88
2023-04-16T15:41:59.339Z,8.13
2023-04-16T15:47:13.707Z,6.40
2023-04-16T15:52:29.489Z,9.38
2023-04-16T15:55:04.377Z,8.00
2023-04-16T15:57:38.015Z,6.10
2023-04-16T16:00:15.078Z,5.87
2023-04-16T16:02:49.752Z,10.67
2023-04-16T16:05:23.791Z,11.75
2023-04-16T16:07:58.634Z,10.13
2023-04-16T16:10:32.366Z,8.43
2023-04-16T16:13:08.258Z,10.93
2023-04-16T16:15:41.773Z,7.30
2023-04-16T16:18:15.683Z,7.58
2023-04-16T16:20:49.164Z,9.33
2023-04-16T16:23:22.847Z,9.10
2023-04-16T16:25:57.089Z,7.50
2023-04-16T16:28:31.138Z,10.82
2023-04-16T16:31:06.551Z,9.10
2023-04-16T16:33:40.719Z,10.88
2023-04-16T16:36:15.469Z,10.72
2023-04-16T16:38:48.730Z,11.93
2023-04-16T16:41:22.592Z,9.80
2023-04-16T16:43:56.567Z,16.02
2023-04-16T16:46:33.421Z,10.63
2023-04-16T16:49:08.547Z,13.93
2023-04-16T16:51:42.136Z,6.70
2023-04-16T16:54:15.799Z,12.35
2023-04-16T16:56:52.460Z,12.00
2023-04-16T16:59:26.646Z,9.68
2023-04-16T17:02:00.069Z,7.00
2023-04-16T17:04:33.401Z,16.57
2023-04-16T17:07:06.753Z,16.32
2023-04-16T17:09:42.928Z,8.00
2023-04-16T17:12:16.420Z,8.45
2023-04-16T17:14:53.212Z,8.53
2023-04-16T17:17:28.358Z,9.17
2023-04-16T17:20:03.477Z,13.50
2023-04-16T17:22:39.626Z,8.93
2023-04-16T17:25:13.994Z,8.60
2023-04-16T17:27:47.281Z,10.82
2023-04-16T17:30:26.171Z,13.20
2023-04-16T17:33:00.878Z,9.13
2023-04-16T17:35:34.807Z,10.03
2023-04-16T17:38:08.333Z,11.28
2023-04-16T17:40:42.143Z,13.93
2023-04-16T17:43:19.835Z,9.05
2023-04-16T17:45:53.259Z,10.28
2023-04-16T17:48:29.092Z,13.20
2023-04-16T17:51:04.026Z,11.97
2023-04-16T17:53:37.330Z,12.15
2023-04-16T17:56:10.749Z,8.98
2023-04-16T17:58:44.191Z,14.35
2023-04-16T18:01:18.213Z,12.35
2023-04-16T18:03:52.090Z,16.05
2023-04-16T18:06:26.531Z,13.80
2023-04-16T18:08:59.699Z,11.22
2023-04-16T18:11:32.871Z,13.20
2023-04-16T18:14:06.322Z,14.65
2023-04-16T18:16:39.529Z,15.35
2023-04-16T18:19:13.300Z,14.35
2023-04-16T18:21:46.985Z,12.43
2023-04-16T18:24:23.879Z,17.20
2023-04-16T18:26:57.613Z,17.62
2023-04-16T18:29:33.816Z,13.83
2023-04-16T18:32:06.530Z,16.17
2023-04-16T18:34:40.122Z,10.80
2023-04-16T18:37:15.268Z,11.88
2023-04-16T18:42:54.280Z,18.25
2023-04-16T18:45:28.476Z,17.30
2023-04-16T18:48:03.498Z,16.73
2023-04-16T18:50:36.648Z,14.00
2023-04-16T18:53:10.682Z,14.65
2023-04-16T18:55:44.047Z,16.73
2023-04-16T18:58:17.248Z,12.68
2023-04-16T19:00:52.536Z,13.45
2023-04-16T19:03:25.975Z,10.63
2023-04-16T19:05:59.155Z,16.10
2023-04-16T19:08:36.490Z,15.90
2023-04-16T19:11:11.651Z,12.03
2023-04-16T19:13:47.849Z,10.63
2023-04-16T19:16:20.990Z,12.13
2023-04-16T19:18:56.833Z,17.05
2023-04-16T19:21:30.084Z,17.62
2023-04-16T19:24:03.330Z,11.33
2023-04-16T19:26:41.461Z,18.50
2023-04-16T19:29:17.980Z,16.82
2023-04-16T19:31:51.441Z,16.65
2023-04-16T19:34:24.590Z,11.48
2023-04-16T19:36:58.170Z,14.98
2023-04-16T19:39:31.707Z,17.07
2023-04-16T19:42:05.313Z,17.95
2023-04-16T19:44:38.571Z,13.00
2023-04-16T19:47:11.898Z,18.25
2023-04-16T19:49:45.036Z,19.87
2023-04-16T19:52:18.131Z,13.03
2023-04-16T19:54:51.501Z,16.30
2023-04-16T19:57:24.876Z,20.25
2023-04-16T19:59:58.307Z,16.05
2023-04-16T20:02:33.022Z,14.30
2023-04-16T20:05:07.554Z,15.93
2023-04-16T20:07:40.953Z,17.65
2023-04-16T20:10:14.381Z,18.57
2023-04-16T20:12:47.710Z,15.85
2023-04-16T20:15:21.784Z,14.90
2023-04-16T20:17:56.468Z,15.70
2023-04-16T20:20:29.836Z,22.65
2023-04-16T20:23:03.051Z,16.52
2023-04-16T20:25:36.495Z,16.23
2023-04-16T20:28:09.838Z,19.85
2023-04-16T20:30:43.285Z,19.98
2023-04-16T20:33:16.523Z,20.15
2023-04-16T20:35:52.279Z,20.55
2023-04-16T20:38:25.630Z,18.90
2023-04-16T20:41:00.634Z,17.92
2023-04-16T20:43:36.914Z,20.02
2023-04-16T20:46:10.915Z,21.17
2023-04-16T20:48:44.223Z,17.32
2023-04-16T20:51:18.296Z,15.58
2023-04-16T20:53:52.288Z,19.15
2023-04-16T20:56:26.041Z,19.05
2023-04-16T20:58:59.502Z,21.12
2023-04-16T21:01:33.250Z,17.20
2023-04-16T21:04:07.316Z,19.50
2023-04-16T21:06:43.823Z,17.95
2023-04-16T21:09:17.679Z,16.82
2023-04-16T21:11:55.936Z,23.83
2023-04-16T21:14:31.195Z,18.85
2023-04-16T21:17:04.833Z,14.23
2023-04-16T21:19:38.493Z,19.00
2023-04-16T21:22:12.095Z,15.23
2023-04-16T21:24:45.683Z,14.98
2023-04-16T21:27:19.056Z,16.17
2023-04-16T21:29:52.935Z,17.27
2023-04-16T21:32:26.684Z,20.02
2023-04-16T21:35:00.432Z,17.52
2023-04-16T21:37:34.328Z,17.23
2023-04-16T21:40:09.489Z,18.65
2023-04-16T21:42:44.413Z,17.80
2023-04-16T21:45:18.178Z,21.12
2023-04-16T21:47:51.791Z,23.27
2023-04-16T21:50:27.251Z,20.30
2023-04-16T21:53:04.090Z,21.48
2023-04-16T21:55:37.984Z,20.27
2023-04-16T21:58:11.723Z,22.10
2023-04-16T22:00:45.491Z,20.70
2023-04-16T22:03:19.261Z,15.43
2023-04-16T22:05:53.218Z,20.60
2023-04-16T22:08:27.282Z,19.75
2023-04-16T22:11:01.587Z,17.90
2023-04-16T22:16:07.813Z,20.25
2023-04-16T22:18:42.038Z,19.30
2023-04-16T22:21:15.566Z,18.95
2023-04-16T22:23:49.354Z,14.28
2023-04-16T22:26:22.655Z,20.10
2023-04-16T22:28:56.501Z,21.30
2023-04-16T22:31:30.127Z,19.80
2023-04-16T22:34:03.811Z,17.80
2023-04-16T22:36:37.336Z,17.62
2023-04-16T22:39:10.792Z,19.27
2023-04-16T22:41:44.715Z,23.62
2023-04-16T22:44:18.231Z,19.50
2023-04-16T22:46:52.079Z,14.75
2023-04-16T22:49:26.452Z,16.23
2023-04-16T22:52:00.400Z,20.15
2023-04-16T22:54:34.293Z,19.52
2023-04-16T22:57:09.388Z,15.90
2023-04-16T22:59:43.163Z,22.25
2023-04-16T23:02:16.900Z,14.45
2023-04-16T23:04:50.530Z,17.50
2023-04-16T23:07:24.361Z,18.48
2023-04-16T23:09:57.841Z,13.98
2023-04-16T23:12:31.519Z,15.30
2023-04-16T23:15:06.634Z,20.37
2023-04-16T23:17:40.890Z,18.30
2023-04-16T23:20:15.767Z,18.90
2023-04-16T23:22:49.457Z,19.07
2023-04-16T23:25:23.778Z,13.60
2023-04-16T23:27:57.307Z,19.57
2023-04-16T23:30:31.224Z,16.55
2023-04-16T23:33:04.693Z,16.67
2023-04-16T23:35:38.208Z,12.03
2023-04-16T23:38:11.948Z,18.87
2023-04-16T23:40:45.794Z,15.20
2023-04-16T23:43:19.511Z,12.65
2023-04-16T23:45:53.384Z,16.95
2023-04-16T23:48:27.207Z,17.65
2023-04-16T23:51:00.985Z,19.77
2023-04-16T23:53:36.094Z,10.40
2023-04-16T23:56:11.529Z,17.00
2023-04-16T23:58:44.816Z,14.55
